sensor_id;sensor_type;location;lat;lon;timestamp;pressure;altitude;pressure_sealevel;temperature;humidity
17635;BME280;8936;49.010;12.120;2023-02-10T00:00:25;99725.59;;;-0.20;100.00
17635;BME280;8936;49.010;12.120;2023-02-10T00:02:52;99723.28;;;-0.23;100.00
17635;BME280;8936;49.010;12.120;2023-02-10T00:05:19;99720.13;;;-0.27;100.00
17635;BME280;8936;49.010;12.120;2023-02-10T00:07:46;99726.72;;;-0.23;100.00
17635;BME280;8936;49.010;12.120;2023-02-10T00:10:12;99718.69;;;-0.21;100.00
17635;BME280;8936;49.010;12.120;2023-02-10T00:12:38;99727.25;;;-0.19;100.00
17635;BME280;8936;49.010;12.120;2023-02-10T00:15:05;99733.34;;;-0.19;100.00
17635;BME280;8936;49.010;12.120;2023-02-10T00:17:31;99721.19;;;-0.20;100.00
17635;BME280;8936;49.010;12.120;2023-02-10T00:19:58;99725.28;;;-0.17;100.00
17635;BME280;8936;49.010;12.120;2023-02-10T00:22:26;99732.22;;;-0.16;100.00
17635;BME280;8936;49.010;12.120;2023-02-10T00:24:52;99727.09;;;-0.18;100.00
17635;BME280;8936;49.010;12.120;2023-02-10T00:27:18;99730.53;;;-0.17;100.00
17635;BME280;8936;49.010;12.120;2023-02-10T00:29:49;99739.38;;;-0.18;100.00
17635;BME280;8936;49.010;12.120;2023-02-10T00:32:15;99740.22;;;-0.18;100.00
17635;BME280;8936;49.010;12.120;2023-02-10T00:34:42;99739.84;;;-0.23;100.00
17635;BME280;8936;49.010;12.120;2023-02-10T00:37:08;99746.06;;;-0.24;100.00
17635;BME280;8936;49.010;12.120;2023-02-10T00:39:36;99741.66;;;-0.23;100.00
17635;BME280;8936;49.010;12.120;2023-02-10T00:42:03;99748.69;;;-0.24;100.00
17635;BME280;8936;49.010;12.120;2023-02-10T00:44:29;99742.31;;;-0.21;100.00
17635;BME280;8936;49.010;12.120;2023-02-10T00:46:55;99741.66;;;-0.23;100.00
17635;BME280;8936;49.010;12.120;2023-02-10T00:49:22;99748.63;;;-0.32;100.00
17635;BME280;8936;49.010;12.120;2023-02-10T00:51:48;99749.59;;;-0.33;100.00
17635;BME280;8936;49.010;12.120;2023-02-10T00:54:14;99754.72;;;-0.31;100.00
17635;BME280;8936;49.010;12.120;2023-02-10T00:56:42;99754.53;;;-0.30;100.00
17635;BME280;8936;49.010;12.120;2023-02-10T00:59:10;99762.28;;;-0.28;100.00
17635;BME280;8936;49.010;12.120;2023-02-10T01:01:37;99752.44;;;-0.26;100.00
17635;BME280;8936;49.010;12.120;2023-02-10T01:04:05;99759.66;;;-0.28;100.00
17635;BME280;8936;49.010;12.120;2023-02-10T01:06:31;99748.03;;;-0.26;100.00
17635;BME280;8936;49.010;12.120;2023-02-10T01:08:57;99760.47;;;-0.28;100.00
17635;BME280;8936;49.010;12.120;2023-02-10T01:11:24;99749.66;;;-0.25;100.00
17635;BME280;8936;49.010;12.120;2023-02-10T01:13:51;99743.59;;;-0.25;100.00
17635;BME280;8936;49.010;12.120;2023-02-10T01:16:18;99739.16;;;-0.25;100.00
17635;BME280;8936;49.010;12.120;2023-02-10T01:18:44;99741.94;;;-0.26;100.00
17635;BME280;8936;49.010;12.120;2023-02-10T01:21:12;99730.63;;;-0.27;100.00
17635;BME280;8936;49.010;12.120;2023-02-10T01:23:39;99731.44;;;-0.26;100.00
17635;BME280;8936;49.010;12.120;2023-02-10T01:26:05;99729.78;;;-0.27;100.00
17635;BME280;8936;49.010;12.120;2023-02-10T01:28:32;99738.44;;;-0.35;100.00
17635;BME280;8936;49.010;12.120;2023-02-10T01:31:03;99740.69;;;-0.67;100.00
17635;BME280;8936;49.010;12.120;2023-02-10T01:33:29;99745.03;;;-1.03;100.00
17635;BME280;8936;49.010;12.120;2023-02-10T01:35:56;99741.66;;;-0.95;100.00
17635;BME280;8936;49.010;12.120;2023-02-10T01:38:22;99744.94;;;-0.84;100.00
17635;BME280;8936;49.010;12.120;2023-02-10T01:40:48;99741.75;;;-0.60;100.00
17635;BME280;8936;49.010;12.120;2023-02-10T01:43:15;99742.97;;;-0.55;100.00
17635;BME280;8936;49.010;12.120;2023-02-10T01:45:42;99737.19;;;-0.58;100.00
17635;BME280;8936;49.010;12.120;2023-02-10T01:48:12;99749.34;;;-0.57;100.00
17635;BME280;8936;49.010;12.120;2023-02-10T01:50:40;99740.25;;;-0.63;100.00
17635;BME280;8936;49.010;12.120;2023-02-10T01:53:07;99742.06;;;-0.63;100.00
17635;BME280;8936;49.010;12.120;2023-02-10T01:55:33;99744.38;;;-0.60;100.00
17635;BME280;8936;49.010;12.120;2023-02-10T01:58:02;99747.84;;;-0.42;100.00
17635;BME280;8936;49.010;12.120;2023-02-10T02:00:29;99742.53;;;-0.50;100.00
17635;BME280;8936;49.010;12.120;2023-02-10T02:02:56;99743.78;;;-0.54;100.00
17635;BME280;8936;49.010;12.120;2023-02-10T02:05:29;99749.56;;;-0.50;100.00
17635;BME280;8936;49.010;12.120;2023-02-10T02:07:57;99748.75;;;-0.51;100.00
17635;BME280;8936;49.010;12.120;2023-02-10T02:10:26;99740.03;;;-0.51;100.00
17635;BME280;8936;49.010;12.120;2023-02-10T02:12:55;99738.25;;;-0.51;100.00
17635;BME280;8936;49.010;12.120;2023-02-10T02:15:23;99737.59;;;-0.53;100.00
17635;BME280;8936;49.010;12.120;2023-02-10T02:17:54;99747.69;;;-0.58;100.00
17635;BME280;8936;49.010;12.120;2023-02-10T02:20:34;99741.91;;;-0.62;100.00
17635;BME280;8936;49.010;12.120;2023-02-10T02:26:11;99740.41;;;-0.64;100.00
17635;BME280;8936;49.010;12.120;2023-02-10T02:28:48;99740.41;;;-0.64;100.00
17635;BME280;8936;49.010;12.120;2023-02-10T02:31:32;99739.72;;;-0.66;100.00
17635;BME280;8936;49.010;12.120;2023-02-10T02:34:03;99747.00;;;-0.60;100.00
17635;BME280;8936;49.010;12.120;2023-02-10T02:36:31;99753.75;;;-0.58;100.00
17635;BME280;8936;49.010;12.120;2023-02-10T02:39:00;99751.59;;;-0.62;100.00
17635;BME280;8936;49.010;12.120;2023-02-10T02:41:27;99757.13;;;-0.65;100.00
17635;BME280;8936;49.010;12.120;2023-02-10T02:43:54;99764.59;;;-0.70;100.00
17635;BME280;8936;49.010;12.120;2023-02-10T02:46:22;99763.75;;;-0.71;100.00
17635;BME280;8936;49.010;12.120;2023-02-10T02:48:56;99760.47;;;-0.73;100.00
17635;BME280;8936;49.010;12.120;2023-02-10T02:51:25;99770.00;;;-0.72;100.00
17635;BME280;8936;49.010;12.120;2023-02-10T02:53:56;99768.19;;;-0.71;100.00
17635;BME280;8936;49.010;12.120;2023-02-10T02:56:27;99788.22;;;-0.70;100.00
17635;BME280;8936;49.010;12.120;2023-02-10T02:58:59;99788.13;;;-0.78;100.00
17635;BME280;8936;49.010;12.120;2023-02-10T03:01:30;99788.78;;;-0.76;100.00
17635;BME280;8936;49.010;12.120;2023-02-10T03:03:59;99789.63;;;-0.76;100.00
17635;BME280;8936;49.010;12.120;2023-02-10T03:06:28;99790.84;;;-0.70;100.00
17635;BME280;8936;49.010;12.120;2023-02-10T03:08:56;99793.16;;;-0.67;100.00
17635;BME280;8936;49.010;12.120;2023-02-10T03:11:22;99786.97;;;-0.66;100.00
17635;BME280;8936;49.010;12.120;2023-02-10T03:13:48;99783.66;;;-0.68;100.00
17635;BME280;8936;49.010;12.120;2023-02-10T03:16:15;99791.41;;;-0.76;100.00
17635;BME280;8936;49.010;12.120;2023-02-10T03:18:41;99786.16;;;-0.76;100.00
17635;BME280;8936;49.010;12.120;2023-02-10T03:21:09;99791.78;;;-0.71;100.00
17635;BME280;8936;49.010;12.120;2023-02-10T03:23:35;99795.94;;;-0.69;100.00
17635;BME280;8936;49.010;12.120;2023-02-10T03:26:01;99790.53;;;-0.67;100.00
17635;BME280;8936;49.010;12.120;2023-02-10T03:28:28;99785.59;;;-0.70;100.00
17635;BME280;8936;49.010;12.120;2023-02-10T03:30:54;99790.00;;;-0.71;100.00
17635;BME280;8936;49.010;12.120;2023-02-10T03:33:21;99792.63;;;-0.71;100.00
17635;BME280;8936;49.010;12.120;2023-02-10T03:35:47;99793.06;;;-0.75;100.00
17635;BME280;8936;49.010;12.120;2023-02-10T03:38:15;99792.78;;;-0.99;100.00
17635;BME280;8936;49.010;12.120;2023-02-10T03:40:42;99798.31;;;-1.02;100.00
17635;BME280;8936;49.010;12.120;2023-02-10T03:43:08;99804.22;;;-1.00;100.00
17635;BME280;8936;49.010;12.120;2023-02-10T03:45:34;99799.34;;;-0.95;100.00
17635;BME280;8936;49.010;12.120;2023-02-10T03:48:01;99806.66;;;-0.89;100.00
17635;BME280;8936;49.010;12.120;2023-02-10T03:50:27;99797.41;;;-0.84;100.00
17635;BME280;8936;49.010;12.120;2023-02-10T03:52:53;99803.16;;;-0.80;100.00
17635;BME280;8936;49.010;12.120;2023-02-10T03:55:21;99804.81;;;-0.79;100.00
17635;BME280;8936;49.010;12.120;2023-02-10T03:57:47;99802.19;;;-0.79;100.00
17635;BME280;8936;49.010;12.120;2023-02-10T04:00:14;99813.53;;;-0.79;100.00
17635;BME280;8936;49.010;12.120;2023-02-10T04:02:41;99816.28;;;-0.80;100.00
17635;BME280;8936;49.010;12.120;2023-02-10T04:05:07;99816.56;;;-0.83;100.00
17635;BME280;8936;49.010;12.120;2023-02-10T04:07:33;99820.84;;;-0.82;100.00
17635;BME280;8936;49.010;12.120;2023-02-10T04:10:00;99824.84;;;-0.78;100.00
17635;BME280;8936;49.010;12.120;2023-02-10T04:12:27;99818.22;;;-0.82;100.00
17635;BME280;8936;49.010;12.120;2023-02-10T04:14:54;99822.25;;;-0.88;100.00
17635;BME280;8936;49.010;12.120;2023-02-10T04:17:20;99830.72;;;-1.03;100.00
17635;BME280;8936;49.010;12.120;2023-02-10T04:19:46;99823.28;;;-1.08;100.00
17635;BME280;8936;49.010;12.120;2023-02-10T04:22:13;99829.22;;;-1.06;100.00
17635;BME280;8936;49.010;12.120;2023-02-10T04:24:39;99830.72;;;-1.03;100.00
17635;BME280;8936;49.010;12.120;2023-02-10T04:27:05;99834.03;;;-1.01;100.00
17635;BME280;8936;49.010;12.120;2023-02-10T04:29:33;99823.41;;;-1.00;100.00
17635;BME280;8936;49.010;12.120;2023-02-10T04:32:04;99829.88;;;-0.94;100.00
17635;BME280;8936;49.010;12.120;2023-02-10T04:34:30;99833.16;;;-0.92;100.00
17635;BME280;8936;49.010;12.120;2023-02-10T04:36:56;99829.75;;;-0.93;100.00
17635;BME280;8936;49.010;12.120;2023-02-10T04:39:23;99829.88;;;-0.94;100.00
17635;BME280;8936;49.010;12.120;2023-02-10T04:41:49;99822.84;;;-0.94;100.00
17635;BME280;8936;49.010;12.120;2023-02-10T04:44:15;99826.16;;;-1.01;100.00
17635;BME280;8936;49.010;12.120;2023-02-10T04:46:43;99823.25;;;-0.98;100.00
17635;BME280;8936;49.010;12.120;2023-02-10T04:49:09;99818.16;;;-1.00;100.00
17635;BME280;8936;49.010;12.120;2023-02-10T04:51:36;99827.66;;;-0.99;100.00
17635;BME280;8936;49.010;12.120;2023-02-10T04:54:02;99835.69;;;-1.00;100.00
17635;BME280;8936;49.010;12.120;2023-02-10T04:56:28;99832.91;;;-0.99;100.00
17635;BME280;8936;49.010;12.120;2023-02-10T04:58:55;99837.09;;;-1.06;100.00
17635;BME280;8936;49.010;12.120;2023-02-10T05:01:21;99832.53;;;-1.14;100.00
17635;BME280;8936;49.010;12.120;2023-02-10T05:03:49;99845.25;;;-1.19;100.00
17635;BME280;8936;49.010;12.120;2023-02-10T05:06:15;99849.13;;;-1.23;100.00
17635;BME280;8936;49.010;12.120;2023-02-10T05:08:42;99842.91;;;-1.22;100.00
17635;BME280;8936;49.010;12.120;2023-02-10T05:11:11;99849.78;;;-1.21;100.00
17635;BME280;8936;49.010;12.120;2023-02-10T05:13:37;99848.44;;;-1.25;100.00
17635;BME280;8936;49.010;12.120;2023-02-10T05:16:05;99845.53;;;-1.22;100.00
17635;BME280;8936;49.010;12.120;2023-02-10T05:18:31;99840.97;;;-1.20;100.00
17635;BME280;8936;49.010;12.120;2023-02-10T05:20:59;99853.41;;;-1.22;100.00
17635;BME280;8936;49.010;12.120;2023-02-10T05:23:27;99853.03;;;-1.36;100.00
17635;BME280;8936;49.010;12.120;2023-02-10T05:25:53;99854.38;;;-1.42;100.00
17635;BME280;8936;49.010;12.120;2023-02-10T05:28:20;99859.78;;;-1.34;100.00
17635;BME280;8936;49.010;12.120;2023-02-10T05:30:46;99848.03;;;-1.30;100.00
17635;BME280;8936;49.010;12.120;2023-02-10T05:33:13;99850.91;;;-1.23;100.00
17635;BME280;8936;49.010;12.120;2023-02-10T05:35:40;99855.75;;;-1.19;100.00
17635;BME280;8936;49.010;12.120;2023-02-10T05:38:07;99856.41;;;-1.17;100.00
17635;BME280;8936;49.010;12.120;2023-02-10T05:40:35;99862.50;;;-1.16;100.00
17635;BME280;8936;49.010;12.120;2023-02-10T05:43:01;99869.13;;;-1.12;100.00
17635;BME280;8936;49.010;12.120;2023-02-10T05:45:28;99865.00;;;-1.15;100.00
17635;BME280;8936;49.010;12.120;2023-02-10T05:47:54;99867.06;;;-1.18;100.00
17635;BME280;8936;49.010;12.120;2023-02-10T05:50:20;99863.31;;;-1.16;100.00
17635;BME280;8936;49.010;12.120;2023-02-10T05:52:47;99877.94;;;-1.13;100.00
17635;BME280;8936;49.010;12.120;2023-02-10T05:55:14;99876.00;;;-1.11;100.00
17635;BME280;8936;49.010;12.120;2023-02-10T05:57:41;99876.44;;;-1.16;100.00
17635;BME280;8936;49.010;12.120;2023-02-10T06:00:08;99891.22;;;-1.15;100.00
17635;BME280;8936;49.010;12.120;2023-02-10T06:02:34;99901.41;;;-1.12;100.00
17635;BME280;8936;49.010;12.120;2023-02-10T06:05:01;99912.69;;;-1.11;100.00
17635;BME280;8936;49.010;12.120;2023-02-10T06:07:27;99899.47;;;-1.10;100.00
17635;BME280;8936;49.010;12.120;2023-02-10T06:09:54;99921.13;;;-1.08;100.00
17635;BME280;8936;49.010;12.120;2023-02-10T06:12:21;99910.09;;;-1.11;100.00
17635;BME280;8936;49.010;12.120;2023-02-10T06:14:48;99916.16;;;-1.11;100.00
17635;BME280;8936;49.010;12.120;2023-02-10T06:17:14;99911.47;;;-1.26;100.00
17635;BME280;8936;49.010;12.120;2023-02-10T06:19:40;99927.50;;;-1.29;100.00
17635;BME280;8936;49.010;12.120;2023-02-10T06:22:07;99933.16;;;-1.34;100.00
17635;BME280;8936;49.010;12.120;2023-02-10T06:24:33;99940.03;;;-1.33;100.00
17635;BME280;8936;49.010;12.120;2023-02-10T06:27:00;99946.53;;;-1.37;100.00
17635;BME280;8936;49.010;12.120;2023-02-10T06:29:27;99937.00;;;-1.38;100.00
17635;BME280;8936;49.010;12.120;2023-02-10T06:31:54;99941.31;;;-1.37;100.00
17635;BME280;8936;49.010;12.120;2023-02-10T06:34:20;99941.16;;;-1.35;100.00
17635;BME280;8936;49.010;12.120;2023-02-10T06:36:46;99932.03;;;-1.60;100.00
17635;BME280;8936;49.010;12.120;2023-02-10T06:39:13;99936.03;;;-1.56;100.00
17635;BME280;8936;49.010;12.120;2023-02-10T06:41:39;99943.06;;;-1.56;100.00
17635;BME280;8936;49.010;12.120;2023-02-10T06:44:06;99935.63;;;-1.71;100.00
17635;BME280;8936;49.010;12.120;2023-02-10T06:46:34;99940.41;;;-1.85;100.00
17635;BME280;8936;49.010;12.120;2023-02-10T06:49:00;99940.13;;;-1.82;100.00
17635;BME280;8936;49.010;12.120;2023-02-10T06:51:27;99935.97;;;-1.85;100.00
17635;BME280;8936;49.010;12.120;2023-02-10T06:53:53;99945.84;;;-2.17;100.00
17635;BME280;8936;49.010;12.120;2023-02-10T06:56:20;99946.47;;;-2.25;100.00
17635;BME280;8936;49.010;12.120;2023-02-10T06:58:46;99958.22;;;-2.19;100.00
17635;BME280;8936;49.010;12.120;2023-02-10T07:01:13;99952.59;;;-2.14;100.00
17635;BME280;8936;49.010;12.120;2023-02-10T07:03:43;99955.63;;;-2.09;100.00
17635;BME280;8936;49.010;12.120;2023-02-10T07:06:09;99961.03;;;-2.01;100.00
17635;BME280;8936;49.010;12.120;2023-02-10T07:08:36;99956.19;;;-2.06;100.00
17635;BME280;8936;49.010;12.120;2023-02-10T07:11:02;99960.44;;;-2.14;100.00
17635;BME280;8936;49.010;12.120;2023-02-10T07:13:28;99972.81;;;-2.47;100.00
17635;BME280;8936;49.010;12.120;2023-02-10T07:15:55;99978.06;;;-2.47;100.00
17635;BME280;8936;49.010;12.120;2023-02-10T07:18:21;99975.41;;;-2.26;100.00
17635;BME280;8936;49.010;12.120;2023-02-10T07:20:49;99985.31;;;-2.30;100.00
17635;BME280;8936;49.010;12.120;2023-02-10T07:23:15;99998.13;;;-2.57;100.00
17635;BME280;8936;49.010;12.120;2023-02-10T07:25:41;99981.19;;;-2.23;100.00
17635;BME280;8936;49.010;12.120;2023-02-10T07:28:08;99997.63;;;-2.41;100.00
17635;BME280;8936;49.010;12.120;2023-02-10T07:30:34;99989.16;;;-2.34;100.00
17635;BME280;8936;49.010;12.120;2023-02-10T07:33:00;99992.88;;;-2.57;100.00
17635;BME280;8936;49.010;12.120;2023-02-10T07:35:27;99997.16;;;-2.56;100.00
17635;BME280;8936;49.010;12.120;2023-02-10T07:37:55;99996.22;;;-2.25;100.00
17635;BME280;8936;49.010;12.120;2023-02-10T07:40:21;99990.72;;;-2.22;100.00
17635;BME280;8936;49.010;12.120;2023-02-10T07:42:48;99985.75;;;-2.25;100.00
17635;BME280;8936;49.010;12.120;2023-02-10T07:45:14;99995.63;;;-2.07;100.00
17635;BME280;8936;49.010;12.120;2023-02-10T07:47:40;99991.59;;;-2.11;100.00
17635;BME280;8936;49.010;12.120;2023-02-10T07:50:07;99994.91;;;-2.09;100.00
17635;BME280;8936;49.010;12.120;2023-02-10T07:52:33;100002.13;;;-2.32;100.00
17635;BME280;8936;49.010;12.120;2023-02-10T07:55:01;100005.06;;;-2.46;100.00
17635;BME280;8936;49.010;12.120;2023-02-10T07:57:29;100002.06;;;-2.11;100.00
17635;BME280;8936;49.010;12.120;2023-02-10T07:59:55;100005.28;;;-2.29;100.00
17635;BME280;8936;49.010;12.120;2023-02-10T08:02:21;100000.75;;;-2.27;100.00
17635;BME280;8936;49.010;12.120;2023-02-10T08:04:48;99999.56;;;-2.13;100.00
17635;BME280;8936;49.010;12.120;2023-02-10T08:07:14;99999.88;;;-2.37;100.00
17635;BME280;8936;49.010;12.120;2023-02-10T08:09:40;100007.53;;;-2.65;100.00
17635;BME280;8936;49.010;12.120;2023-02-10T08:12:08;100007.03;;;-3.01;100.00
17635;BME280;8936;49.010;12.120;2023-02-10T08:14:34;100011.03;;;-2.97;100.00
17635;BME280;8936;49.010;12.120;2023-02-10T08:17:01;100024.25;;;-2.78;100.00
17635;BME280;8936;49.010;12.120;2023-02-10T08:19:27;100025.69;;;-2.74;100.00
17635;BME280;8936;49.010;12.120;2023-02-10T08:21:53;100034.03;;;-2.80;100.00
17635;BME280;8936;49.010;12.120;2023-02-10T08:24:20;100030.56;;;-2.80;100.00
17635;BME280;8936;49.010;12.120;2023-02-10T08:26:46;100033.53;;;-3.05;100.00
17635;BME280;8936;49.010;12.120;2023-02-10T08:29:14;100038.91;;;-3.07;100.00
17635;BME280;8936;49.010;12.120;2023-02-10T08:31:40;100038.94;;;-3.18;100.00
17635;BME280;8936;49.010;12.120;2023-02-10T08:34:11;100037.09;;;-3.06;100.00
17635;BME280;8936;49.010;12.120;2023-02-10T08:36:38;100045.34;;;-2.90;100.00
17635;BME280;8936;49.010;12.120;2023-02-10T08:39:04;100039.75;;;-2.86;100.00
17635;BME280;8936;49.010;12.120;2023-02-10T08:41:31;100027.38;;;-2.63;100.00
17635;BME280;8936;49.010;12.120;2023-02-10T08:43:57;100034.50;;;-2.54;100.00
17635;BME280;8936;49.010;12.120;2023-02-10T08:46:25;100043.66;;;-2.39;100.00
17635;BME280;8936;49.010;12.120;2023-02-10T08:48:51;100040.22;;;-2.39;100.00
17635;BME280;8936;49.010;12.120;2023-02-10T08:51:18;100052.34;;;-2.59;100.00
17635;BME280;8936;49.010;12.120;2023-02-10T08:53:44;100057.06;;;-2.53;100.00
17635;BME280;8936;49.010;12.120;2023-02-10T08:56:13;100058.59;;;-2.71;100.00
17635;BME280;8936;49.010;12.120;2023-02-10T08:58:39;100051.00;;;-2.74;100.00
17635;BME280;8936;49.010;12.120;2023-02-10T09:01:09;100047.09;;;-2.59;100.00
17635;BME280;8936;49.010;12.120;2023-02-10T09:03:37;100046.88;;;-2.26;100.00
17635;BME280;8936;49.010;12.120;2023-02-10T09:06:03;100044.72;;;-2.21;100.00
17635;BME280;8936;49.010;12.120;2023-02-10T09:08:30;100052.47;;;-2.40;100.00
17635;BME280;8936;49.010;12.120;2023-02-10T09:10:56;100059.66;;;-2.53;100.00
17635;BME280;8936;49.010;12.120;2023-02-10T09:13:23;100066.56;;;-2.52;100.00
17635;BME280;8936;49.010;12.120;2023-02-10T09:15:50;100068.03;;;-2.59;100.00
17635;BME280;8936;49.010;12.120;2023-02-10T09:18:16;100074.47;;;-2.63;100.00
17635;BME280;8936;49.010;12.120;2023-02-10T09:20:44;100068.03;;;-2.59;100.00
17635;BME280;8936;49.010;12.120;2023-02-10T09:23:10;100072.38;;;-2.48;100.00
17635;BME280;8936;49.010;12.120;2023-02-10T09:25:36;100053.63;;;-2.33;100.00
17635;BME280;8936;49.010;12.120;2023-02-10T09:28:03;100056.94;;;-2.31;100.00
17635;BME280;8936;49.010;12.120;2023-02-10T09:30:29;100051.44;;;-2.28;100.00
17635;BME280;8936;49.010;12.120;2023-02-10T09:32:56;100051.06;;;-2.23;100.00
17635;BME280;8936;49.010;12.120;2023-02-10T09:35:22;100053.41;;;-2.20;100.00
17635;BME280;8936;49.010;12.120;2023-02-10T09:37:50;100052.50;;;-2.09;100.00
17635;BME280;8936;49.010;12.120;2023-02-10T09:40:17;100056.88;;;-2.10;100.00
17635;BME280;8936;49.010;12.120;2023-02-10T09:42:47;100052.69;;;-2.01;100.00
17635;BME280;8936;49.010;12.120;2023-02-10T09:45:19;100049.09;;;-2.00;100.00
17635;BME280;8936;49.010;12.120;2023-02-10T09:47:48;100061.38;;;-1.91;100.00
17635;BME280;8936;49.010;12.120;2023-02-10T09:50:20;100056.88;;;-1.89;100.00
17635;BME280;8936;49.010;12.120;2023-02-10T09:52:57;100056.19;;;-1.82;100.00
17635;BME280;8936;49.010;12.120;2023-02-10T09:55:28;100047.69;;;-1.74;100.00
17635;BME280;8936;49.010;12.120;2023-02-10T09:57:56;100034.91;;;-1.68;100.00
17635;BME280;8936;49.010;12.120;2023-02-10T10:00:24;100026.75;;;-1.65;100.00
17635;BME280;8936;49.010;12.120;2023-02-10T10:02:53;100038.50;;;-1.59;100.00
17635;BME280;8936;49.010;12.120;2023-02-10T10:05:21;100034.66;;;-1.55;100.00
17635;BME280;8936;49.010;12.120;2023-02-10T10:07:50;100040.03;;;-1.47;100.00
17635;BME280;8936;49.010;12.120;2023-02-10T10:10:22;100029.41;;;-1.45;100.00
17635;BME280;8936;49.010;12.120;2023-02-10T10:12:50;100038.66;;;-1.41;100.00
17635;BME280;8936;49.010;12.120;2023-02-10T10:15:17;100033.03;;;-1.37;100.00
17635;BME280;8936;49.010;12.120;2023-02-10T10:17:47;100041.56;;;-1.35;100.00
17635;BME280;8936;49.010;12.120;2023-02-10T10:20:21;100043.13;;;-1.23;100.00
17635;BME280;8936;49.010;12.120;2023-02-10T10:22:52;100036.38;;;-1.16;100.00
17635;BME280;8936;49.010;12.120;2023-02-10T10:25:29;100046.88;;;-1.06;100.00
17635;BME280;8936;49.010;12.120;2023-02-10T10:28:02;100042.47;;;-1.05;100.00
17635;BME280;8936;49.010;12.120;2023-02-10T10:30:37;100032.78;;;-0.95;100.00
17635;BME280;8936;49.010;12.120;2023-02-10T10:33:14;100041.75;;;-0.88;100.00
17635;BME280;8936;49.010;12.120;2023-02-10T10:35:43;100028.66;;;-0.88;100.00
17635;BME280;8936;49.010;12.120;2023-02-10T10:38:10;100034.16;;;-0.82;100.00
17635;BME280;8936;49.010;12.120;2023-02-10T10:40:39;100026.97;;;-0.89;100.00
17635;BME280;8936;49.010;12.120;2023-02-10T10:43:08;100029.75;;;-0.81;100.00
17635;BME280;8936;49.010;12.120;2023-02-10T10:45:39;100031.00;;;-0.76;100.00
17635;BME280;8936;49.010;12.120;2023-02-10T10:48:08;100026.69;;;-0.67;100.00
17635;BME280;8936;49.010;12.120;2023-02-10T10:50:34;100031.38;;;-0.71;100.00
17635;BME280;8936;49.010;12.120;2023-02-10T10:53:03;100021.59;;;-0.59;100.00
17635;BME280;8936;49.010;12.120;2023-02-10T10:55:32;100018.91;;;-0.49;100.00
17635;BME280;8936;49.010;12.120;2023-02-10T10:58:02;100018.63;;;-0.37;100.00
17635;BME280;8936;49.010;12.120;2023-02-10T11:00:29;100016.13;;;-0.29;100.00
17635;BME280;8936;49.010;12.120;2023-02-10T11:02:56;100012.72;;;-0.58;100.00
17635;BME280;8936;49.010;12.120;2023-02-10T11:05:26;100005.53;;;-0.46;100.00
17635;BME280;8936;49.010;12.120;2023-02-10T11:07:53;99996.97;;;-0.48;100.00
17635;BME280;8936;49.010;12.120;2023-02-10T11:10:23;100005.25;;;-0.43;100.00
17635;BME280;8936;49.010;12.120;2023-02-10T11:12:50;99996.63;;;-0.26;100.00
17635;BME280;8936;49.010;12.120;2023-02-10T11:15:29;99994.50;;;-0.04;100.00
17635;BME280;8936;49.010;12.120;2023-02-10T11:17:56;99994.50;;;-0.04;100.00
17635;BME280;8936;49.010;12.120;2023-02-10T11:20:25;99996.06;;;0.07;100.00
17635;BME280;8936;49.010;12.120;2023-02-10T11:22:55;99990.25;;;0.13;100.00
17635;BME280;8936;49.010;12.120;2023-02-10T11:25:24;99984.03;;;0.14;100.00
17635;BME280;8936;49.010;12.120;2023-02-10T11:27:51;99978.91;;;0.13;100.00
17635;BME280;8936;49.010;12.120;2023-02-10T11:30:23;99986.19;;;0.19;100.00
17635;BME280;8936;49.010;12.120;2023-02-10T11:32:51;99987.88;;;0.20;100.00
17635;BME280;8936;49.010;12.120;2023-02-10T11:35:18;99984.00;;;0.41;100.00
17635;BME280;8936;49.010;12.120;2023-02-10T11:37:44;99973.19;;;0.44;100.00
17635;BME280;8936;49.010;12.120;2023-02-10T11:40:17;99969.38;;;0.57;100.00
17635;BME280;8936;49.010;12.120;2023-02-10T11:42:45;99965.00;;;0.65;100.00
17635;BME280;8936;49.010;12.120;2023-02-10T11:45:16;99966.31;;;0.79;100.00
17635;BME280;8936;49.010;12.120;2023-02-10T11:47:42;99960.97;;;0.71;100.00
17635;BME280;8936;49.010;12.120;2023-02-10T11:50:19;99963.91;;;0.85;100.00
17635;BME280;8936;49.010;12.120;2023-02-10T11:52:46;99961.63;;;0.90;100.00
17635;BME280;8936;49.010;12.120;2023-02-10T11:55:13;99961.88;;;0.97;100.00
17635;BME280;8936;49.010;12.120;2023-02-10T11:57:43;99957.47;;;1.05;100.00
17635;BME280;8936;49.010;12.120;2023-02-10T12:00:28;99957.19;;;1.08;100.00
17635;BME280;8936;49.010;12.120;2023-02-10T12:03:18;99962.56;;;0.99;100.00
17635;BME280;8936;49.010;12.120;2023-02-10T12:05:52;99967.66;;;0.83;100.00
17635;BME280;8936;49.010;12.120;2023-02-10T12:08:23;99956.78;;;0.95;100.00
17635;BME280;8936;49.010;12.120;2023-02-10T12:10:54;99958.31;;;1.06;100.00
17635;BME280;8936;49.010;12.120;2023-02-10T12:13:26;99963.00;;;0.94;100.00
17635;BME280;8936;49.010;12.120;2023-02-10T12:15:57;99957.41;;;1.15;100.00
17635;BME280;8936;49.010;12.120;2023-02-10T12:18:29;99949.53;;;0.97;100.00
17635;BME280;8936;49.010;12.120;2023-02-10T12:21:08;99953.94;;;1.15;100.00
17635;BME280;8936;49.010;12.120;2023-02-10T12:26:22;99941.59;;;1.15;100.00
17635;BME280;8936;49.010;12.120;2023-02-10T12:28:53;99944.31;;;1.23;100.00
17635;BME280;8936;49.010;12.120;2023-02-10T12:31:25;99933.59;;;1.42;100.00
17635;BME280;8936;49.010;12.120;2023-02-10T12:34:01;99926.72;;;1.49;100.00
17635;BME280;8936;49.010;12.120;2023-02-10T12:36:35;99929.41;;;1.57;100.00
17635;BME280;8936;49.010;12.120;2023-02-10T12:39:07;99921.06;;;1.70;100.00
17635;BME280;8936;49.010;12.120;2023-02-10T12:41:40;99928.66;;;1.73;100.00
17635;BME280;8936;49.010;12.120;2023-02-10T12:44:12;99923.00;;;1.60;100.00
17635;BME280;8936;49.010;12.120;2023-02-10T12:46:43;99913.44;;;1.59;100.00
17635;BME280;8936;49.010;12.120;2023-02-10T12:49:18;99912.34;;;1.70;100.00
17635;BME280;8936;49.010;12.120;2023-02-10T12:52:02;99919.41;;;1.69;100.00
17635;BME280;8936;49.010;12.120;2023-02-10T12:54:31;99907.66;;;1.55;100.00
17635;BME280;8936;49.010;12.120;2023-02-10T12:57:01;99904.63;;;1.42;100.00